Time;durP1;ratioP1;P1;durP2;ratioP2;P2;SDS_P1;SDS_P2;PMS_P1;PMS_P2;Temp;Humidity;BMP_temperature;BMP_pressure;BME280_temperature;BME280_humidity;BME280_pressure;Samples;Min_cycle;Max_cycle;Signal;HPM_P1;HPM_P2
2023/05/20 00:00:51;;;;;;;19.55;12.35;;;;;;;;;;5057808;28;20082;-56
2023/05/20 00:03:18;;;;;;;16.92;11.82;;;;;;;;;;5058397;28;20204;-59
2023/05/20 00:05:44;;;;;;;17.50;11.82;;;;;;;;;;5036134;28;20719;-60
2023/05/20 00:08:09;;;;;;;21.15;11.82;;;;;;;;;;5037837;28;20217;-58
2023/05/20 00:10:35;;;;;;;19.90;14.43;;;;;;;;;;5036619;28;20032;-59
2023/05/20 00:13:01;;;;;;;24.23;14.43;;;;;;;;;;5037829;28;20472;-58
2023/05/20 00:15:26;;;;;;;23.67;14.85;;;;;;;;;;5018793;28;20473;-60
2023/05/20 00:17:51;;;;;;;26.02;16.13;;;;;;;;;;5037720;28;20036;-55
2023/05/20 00:20:17;;;;;;;26.13;18.88;;;;;;;;;;5036611;28;20021;-58
2023/05/20 00:22:42;;;;;;;67.93;62.38;;;;;;;;;;5038165;28;20025;-58
2023/05/20 00:25:07;;;;;;;121.90;112.50;;;;;;;;;;5038196;28;20027;-56
2023/05/20 00:27:33;;;;;;;23.88;15.93;;;;;;;;;;5018155;28;20444;-60
2023/05/20 00:29:58;;;;;;;20.05;13.65;;;;;;;;;;5038062;28;20526;-57
2023/05/20 00:32:23;;;;;;;20.30;13.40;;;;;;;;;;5037687;28;20021;-57
2023/05/20 00:34:58;;;;;;;28.02;15.68;;;;;;;;;;5038011;28;20027;-60
2023/05/20 00:37:23;;;;;;;34.38;26.88;;;;;;;;;;5037690;28;20031;-56
2023/05/20 00:39:49;;;;;;;85.18;78.38;;;;;;;;;;5037238;28;20021;-60
2023/05/20 00:42:20;;;;;;;59.85;54.55;;;;;;;;;;5038146;28;20481;-57
2023/05/20 00:44:46;;;;;;;75.57;69.35;;;;;;;;;;5037908;28;20025;-59
2023/05/20 00:47:11;;;;;;;23.85;15.27;;;;;;;;;;5037302;28;20036;-60
2023/05/20 00:49:36;;;;;;;24.65;15.20;;;;;;;;;;5037802;28;20560;-55
2023/05/20 00:52:02;;;;;;;23.85;15.30;;;;;;;;;;5037440;28;20512;-60
2023/05/20 00:54:27;;;;;;;43.90;39.70;;;;;;;;;;5037660;28;20388;-58
2023/05/20 00:56:52;;;;;;;38.13;34.17;;;;;;;;;;5037832;28;20365;-57
2023/05/20 00:59:17;;;;;;;32.63;29.15;;;;;;;;;;5042259;28;20029;-56
2023/05/20 01:01:43;;;;;;;57.15;51.67;;;;;;;;;;5041379;28;20029;-58
2023/05/20 01:04:08;;;;;;;25.67;16.23;;;;;;;;;;5022355;28;20431;-56
2023/05/20 01:06:34;;;;;;;25.52;14.43;;;;;;;;;;5053018;28;20076;-58
2023/05/20 01:08:59;;;;;;;29.55;21.52;;;;;;;;;;5061318;28;20376;-56
2023/05/20 01:11:27;;;;;;;54.33;49.13;;;;;;;;;;5061226;28;20050;-58
2023/05/20 01:14:01;;;;;;;105.60;96.40;;;;;;;;;;5061013;28;20031;-59
2023/05/20 01:16:27;;;;;;;68.55;61.40;;;;;;;;;;5061436;28;20246;-56
2023/05/20 01:18:54;;;;;;;32.40;24.58;;;;;;;;;;5061344;28;20275;-60
2023/05/20 01:21:20;;;;;;;52.53;47.22;;;;;;;;;;5060726;28;20035;-59
2023/05/20 01:23:47;;;;;;;108.53;87.63;;;;;;;;;;5061164;28;20325;-59
2023/05/20 01:26:12;;;;;;;22.85;15.07;;;;;;;;;;5060779;28;20016;-59
2023/05/20 01:28:38;;;;;;;25.75;15.43;;;;;;;;;;5061250;28;20488;-56
2023/05/20 01:31:04;;;;;;;24.15;16.35;;;;;;;;;;5060775;28;20058;-58
2023/05/20 01:33:30;;;;;;;25.45;14.32;;;;;;;;;;5061258;28;20143;-59
2023/05/20 01:35:56;;;;;;;27.50;16.35;;;;;;;;;;5060824;28;20053;-58
2023/05/20 01:38:22;;;;;;;24.85;14.63;;;;;;;;;;5061107;28;20024;-60
2023/05/20 01:40:48;;;;;;;23.42;13.07;;;;;;;;;;5061170;28;20476;-59
2023/05/20 01:43:14;;;;;;;26.23;13.52;;;;;;;;;;5060489;28;20055;-58
2023/05/20 01:45:40;;;;;;;25.35;13.93;;;;;;;;;;5060931;28;20020;-58
2023/05/20 01:48:07;;;;;;;22.55;14.02;;;;;;;;;;5060315;28;20024;-60
2023/05/20 01:50:32;;;;;;;32.13;14.05;;;;;;;;;;5061004;28;20044;-54
2023/05/20 01:52:57;;;;;;;29.48;14.15;;;;;;;;;;5060732;28;20105;-56
2023/05/20 01:55:23;;;;;;;28.70;15.95;;;;;;;;;;5060299;28;20797;-59
2023/05/20 01:57:49;;;;;;;30.13;15.18;;;;;;;;;;5060350;28;20029;-58
2023/05/20 02:00:14;;;;;;;29.40;15.90;;;;;;;;;;5060147;28;20028;-56
2023/05/20 02:02:39;;;;;;;28.48;15.50;;;;;;;;;;5060401;28;20021;-58
2023/05/20 02:05:05;;;;;;;31.70;14.38;;;;;;;;;;5060019;28;20020;-59
2023/05/20 02:07:30;;;;;;;24.63;14.38;;;;;;;;;;5059803;28;20052;-58
2023/05/20 02:09:55;;;;;;;26.67;14.65;;;;;;;;;;5058862;28;20089;-56
2023/05/20 02:12:21;;;;;;;24.48;15.43;;;;;;;;;;5060445;28;20048;-59
2023/05/20 02:14:46;;;;;;;33.42;15.10;;;;;;;;;;5060473;28;20460;-55
2023/05/20 02:17:15;;;;;;;37.90;16.48;;;;;;;;;;5060073;28;20055;-59
2023/05/20 02:19:40;;;;;;;25.88;14.70;;;;;;;;;;5060064;28;20050;-56
2023/05/20 02:22:05;;;;;;;23.77;14.63;;;;;;;;;;5059678;28;20017;-56
2023/05/20 02:24:31;;;;;;;31.23;14.85;;;;;;;;;;5060230;28;20541;-58
2023/05/20 02:26:57;;;;;;;23.75;14.05;;;;;;;;;;5059727;28;20544;-58
2023/05/20 02:29:23;;;;;;;24.50;14.43;;;;;;;;;;5059944;28;20020;-59
2023/05/20 02:31:48;;;;;;;27.52;13.93;;;;;;;;;;5059533;28;20028;-57
2023/05/20 02:34:15;;;;;;;24.67;14.77;;;;;;;;;;5041825;28;20357;-57
2023/05/20 02:36:41;;;;;;;26.13;13.98;;;;;;;;;;5059650;28;20078;-58
2023/05/20 02:39:06;;;;;;;22.92;13.05;;;;;;;;;;5059509;28;20024;-55
2023/05/20 02:41:31;;;;;;;19.20;13.38;;;;;;;;;;5059444;28;20425;-58
2023/05/20 02:43:56;;;;;;;24.77;12.63;;;;;;;;;;5059663;28;20051;-57
2023/05/20 02:46:22;;;;;;;22.50;13.70;;;;;;;;;;5059385;28;20051;-57
2023/05/20 02:48:47;;;;;;;31.02;13.48;;;;;;;;;;5059412;28;20175;-56
2023/05/20 02:51:12;;;;;;;25.27;14.10;;;;;;;;;;5059334;28;20017;-57
2023/05/20 02:53:38;;;;;;;25.08;13.88;;;;;;;;;;5059034;28;20021;-57
2023/05/20 02:56:03;;;;;;;27.05;13.73;;;;;;;;;;5058956;28;20056;-59
2023/05/20 02:58:28;;;;;;;35.50;28.77;;;;;;;;;;5058903;28;20389;-58
2023/05/20 03:00:56;;;;;;;100.03;90.07;;;;;;;;;;5059314;28;20032;-60
2023/05/20 03:03:22;;;;;;;23.83;14.23;;;;;;;;;;5059401;28;20023;-57
2023/05/20 03:05:47;;;;;;;53.28;47.60;;;;;;;;;;5058809;28;20045;-57
2023/05/20 03:08:13;;;;;;;22.38;13.25;;;;;;;;;;5059203;28;20119;-54
2023/05/20 03:10:39;;;;;;;20.05;12.80;;;;;;;;;;5058837;28;20020;-58
2023/05/20 03:13:09;;;;;;;22.88;12.63;;;;;;;;;;5058973;28;20023;-57
2023/05/20 03:15:35;;;;;;;22.38;12.85;;;;;;;;;;5058460;28;20016;-60
2023/05/20 03:18:01;;;;;;;169.95;154.15;;;;;;;;;;5058913;28;20419;-56
2023/05/20 03:20:27;;;;;;;38.53;25.92;;;;;;;;;;5058888;28;20016;-58
2023/05/20 03:22:53;;;;;;;22.58;13.05;;;;;;;;;;5058816;28;20020;-60
2023/05/20 03:25:18;;;;;;;22.05;12.23;;;;;;;;;;5058742;28;20472;-58
2023/05/20 03:27:43;;;;;;;22.67;13.45;;;;;;;;;;5058500;28;20060;-57
2023/05/20 03:30:09;;;;;;;25.60;22.08;;;;;;;;;;5058585;28;20017;-58
2023/05/20 03:32:34;;;;;;;22.92;12.73;;;;;;;;;;5058503;28;20306;-57
2023/05/20 03:35:00;;;;;;;33.00;26.15;;;;;;;;;;5058496;28;20066;-60
2023/05/20 03:37:25;;;;;;;29.40;23.85;;;;;;;;;;5058128;28;20055;-56
2023/05/20 03:39:50;;;;;;;89.45;77.65;;;;;;;;;;5058434;28;20031;-57
2023/05/20 03:42:15;;;;;;;17.92;10.63;;;;;;;;;;5058345;28;20028;-59
2023/05/20 03:44:41;;;;;;;19.17;11.75;;;;;;;;;;5058530;28;20028;-59
2023/05/20 03:47:06;;;;;;;16.27;10.50;;;;;;;;;;4989494;28;20387;-58
2023/05/20 03:49:31;;;;;;;19.95;11.00;;;;;;;;;;5058197;28;20532;-56
2023/05/20 03:51:57;;;;;;;16.00;10.57;;;;;;;;;;5058406;28;20496;-58
2023/05/20 03:54:22;;;;;;;15.88;10.63;;;;;;;;;;5058024;28;20137;-58
2023/05/20 03:56:48;;;;;;;14.73;9.82;;;;;;;;;;5040323;28;20071;-60
2023/05/20 03:59:13;;;;;;;19.63;11.50;;;;;;;;;;5057999;28;20035;-56
2023/05/20 04:01:38;;;;;;;16.17;10.43;;;;;;;;;;5058285;28;20729;-57
2023/05/20 04:04:04;;;;;;;18.67;10.98;;;;;;;;;;5057808;28;20016;-59
2023/05/20 04:06:30;;;;;;;17.90;10.02;;;;;;;;;;5058316;28;20123;-58
2023/05/20 04:08:56;;;;;;;15.10;9.45;;;;;;;;;;5057765;28;20093;-58
2023/05/20 04:11:21;;;;;;;18.92;10.35;;;;;;;;;;5058118;28;20119;-57
2023/05/20 04:13:46;;;;;;;18.98;10.07;;;;;;;;;;5058136;28;20460;-58
2023/05/20 04:16:12;;;;;;;16.60;10.27;;;;;;;;;;5057892;28;20075;-59
2023/05/20 04:18:37;;;;;;;68.72;58.42;;;;;;;;;;5058279;28;20248;-57
2023/05/20 04:21:03;;;;;;;18.52;10.05;;;;;;;;;;5057787;28;20013;-59
2023/05/20 04:23:28;;;;;;;14.65;9.40;;;;;;;;;;5057946;28;20020;-57
2023/05/20 04:25:54;;;;;;;19.73;12.38;;;;;;;;;;5057904;28;20048;-59
2023/05/20 04:28:22;;;;;;;92.32;64.65;;;;;;;;;;5057691;28;20025;-55
2023/05/20 04:30:48;;;;;;;15.73;9.43;;;;;;;;;;5039640;28;20435;-58
2023/05/20 04:33:15;;;;;;;16.30;9.32;;;;;;;;;;5038898;28;20107;-60
2023/05/20 04:35:40;;;;;;;16.85;9.98;;;;;;;;;;5039548;28;20550;-58
2023/05/20 04:38:07;;;;;;;84.03;69.30;;;;;;;;;;5057782;28;20020;-56
2023/05/20 04:40:32;;;;;;;13.52;8.52;;;;;;;;;;5039941;28;20449;-58
2023/05/20 04:43:01;;;;;;;12.93;7.47;;;;;;;;;;5039444;28;20032;-57
2023/05/20 04:45:26;;;;;;;13.47;8.80;;;;;;;;;;5057630;28;20017;-57
2023/05/20 04:47:52;;;;;;;14.43;7.90;;;;;;;;;;5057114;28;20269;-59
2023/05/20 04:50:17;;;;;;;16.75;7.55;;;;;;;;;;5057827;28;20424;-59
2023/05/20 04:52:44;;;;;;;16.52;7.93;;;;;;;;;;5057689;28;20013;-58
2023/05/20 04:55:10;;;;;;;12.00;6.85;;;;;;;;;;5057055;28;20029;-58
2023/05/20 04:57:38;;;;;;;11.82;7.25;;;;;;;;;;5057241;28;20028;-58
2023/05/20 05:00:06;;;;;;;15.70;7.78;;;;;;;;;;5057280;28;20032;-58
2023/05/20 05:02:31;;;;;;;10.60;7.45;;;;;;;;;;5057940;28;20089;-56
2023/05/20 05:04:57;;;;;;;18.00;7.93;;;;;;;;;;5057424;28;20025;-59
2023/05/20 05:07:22;;;;;;;10.68;7.00;;;;;;;;;;5039006;28;20563;-57
2023/05/20 05:09:47;;;;;;;11.50;7.13;;;;;;;;;;5039418;28;20545;-58
2023/05/20 05:12:13;;;;;;;10.93;6.93;;;;;;;;;;5057109;28;20013;-60
2023/05/20 05:14:38;;;;;;;12.02;6.78;;;;;;;;;;5057679;28;20733;-59
2023/05/20 05:17:03;;;;;;;13.03;6.60;;;;;;;;;;5057288;28;20030;-57
2023/05/20 05:19:29;;;;;;;12.18;7.57;;;;;;;;;;5057699;28;20744;-57
2023/05/20 05:21:54;;;;;;;10.55;6.35;;;;;;;;;;5056932;28;20154;-60
2023/05/20 05:24:19;;;;;;;12.88;7.30;;;;;;;;;;5057508;28;20469;-59
2023/05/20 05:26:44;;;;;;;9.50;6.47;;;;;;;;;;5056915;28;20391;-59
2023/05/20 05:29:10;;;;;;;10.13;7.05;;;;;;;;;;5057167;28;20029;-60
2023/05/20 05:31:35;;;;;;;19.77;7.93;;;;;;;;;;5056662;28;20025;-58
2023/05/20 05:34:00;;;;;;;11.95;6.57;;;;;;;;;;5057781;28;20048;-57
2023/05/20 05:36:26;;;;;;;18.03;7.53;;;;;;;;;;5057010;28;20503;-59
2023/05/20 05:38:51;;;;;;;10.67;6.73;;;;;;;;;;5057211;28;20303;-60
2023/05/20 05:41:16;;;;;;;9.75;7.38;;;;;;;;;;5057250;28;20835;-55
2023/05/20 05:43:41;;;;;;;17.60;8.63;;;;;;;;;;5058643;28;20032;-57
2023/05/20 05:46:08;;;;;;;10.87;7.63;;;;;;;;;;5060813;28;20764;-59
2023/05/20 05:48:33;;;;;;;16.05;8.38;;;;;;;;;;5042399;28;20273;-58
2023/05/20 05:50:59;;;;;;;10.02;7.57;;;;;;;;;;5060772;28;20449;-58
2023/05/20 05:53:24;;;;;;;13.30;9.10;;;;;;;;;;5042343;28;20028;-59
2023/05/20 05:55:49;;;;;;;12.27;8.10;;;;;;;;;;5060362;28;20024;-58
2023/05/20 05:58:15;;;;;;;9.93;7.57;;;;;;;;;;5041959;28;20058;-58
2023/05/20 06:00:40;;;;;;;13.75;7.45;;;;;;;;;;5060270;28;20021;-57
2023/05/20 06:03:05;;;;;;;15.93;8.27;;;;;;;;;;5060398;28;20095;-57
2023/05/20 06:05:31;;;;;;;14.25;8.23;;;;;;;;;;5060547;28;20703;-59
2023/05/20 06:07:56;;;;;;;13.90;9.18;;;;;;;;;;5060273;28;20024;-58
2023/05/20 06:10:21;;;;;;;12.93;7.68;;;;;;;;;;5060060;28;20073;-58
2023/05/20 06:12:47;;;;;;;14.05;7.97;;;;;;;;;;5060556;28;20017;-59
2023/05/20 06:15:12;;;;;;;10.25;7.53;;;;;;;;;;5059885;28;20029;-59
2023/05/20 06:17:38;;;;;;;15.27;8.02;;;;;;;;;;5042276;28;20024;-58
2023/05/20 06:20:03;;;;;;;9.85;7.93;;;;;;;;;;5059815;28;20028;-59
2023/05/20 06:22:28;;;;;;;11.80;8.98;;;;;;;;;;5060368;28;20016;-58
2023/05/20 06:24:55;;;;;;;13.70;8.20;;;;;;;;;;5059811;28;20016;-59
2023/05/20 06:27:20;;;;;;;12.05;7.93;;;;;;;;;;5059747;28;20273;-58
2023/05/20 06:29:46;;;;;;;10.10;6.80;;;;;;;;;;5059690;28;20016;-59
2023/05/20 06:32:11;;;;;;;14.67;8.10;;;;;;;;;;5059612;28;20486;-60
2023/05/20 06:34:36;;;;;;;10.15;8.00;;;;;;;;;;5059722;28;20234;-59
2023/05/20 06:37:01;;;;;;;33.38;18.45;;;;;;;;;;5059594;28;20024;-58
2023/05/20 06:39:27;;;;;;;9.85;7.10;;;;;;;;;;5059952;28;20107;-58
2023/05/20 06:41:52;;;;;;;13.13;7.27;;;;;;;;;;5059461;28;20048;-57
2023/05/20 06:44:17;;;;;;;8.88;7.55;;;;;;;;;;5059706;28;20250;-58
2023/05/20 06:46:43;;;;;;;11.13;7.00;;;;;;;;;;5059363;28;20025;-60
2023/05/20 06:49:08;;;;;;;17.35;7.63;;;;;;;;;;5059864;28;20063;-58
2023/05/20 06:51:33;;;;;;;9.97;7.10;;;;;;;;;;5059236;28;20323;-56
2023/05/20 06:53:59;;;;;;;10.10;7.40;;;;;;;;;;5059734;28;20612;-59
2023/05/20 06:56:24;;;;;;;12.37;6.90;;;;;;;;;;5040181;28;20245;-59
2023/05/20 06:58:49;;;;;;;12.30;7.63;;;;;;;;;;5059196;28;20032;-57
2023/05/20 07:01:15;;;;;;;11.95;7.10;;;;;;;;;;5059130;28;20520;-59
2023/05/20 07:03:41;;;;;;;11.20;7.13;;;;;;;;;;5006374;28;20024;-59
2023/05/20 07:06:06;;;;;;;9.50;6.95;;;;;;;;;;5058902;28;20823;-57
2023/05/20 07:08:32;;;;;;;9.23;6.70;;;;;;;;;;5059014;28;20082;-58
2023/05/20 07:10:57;;;;;;;11.67;7.33;;;;;;;;;;5059060;28;20081;-61
2023/05/20 07:13:24;;;;;;;13.07;7.50;;;;;;;;;;5058594;28;20356;-57
2023/05/20 07:15:50;;;;;;;16.33;7.03;;;;;;;;;;5059202;28;20115;-59
2023/05/20 07:18:15;;;;;;;8.95;6.45;;;;;;;;;;5058394;28;20519;-58
2023/05/20 07:20:40;;;;;;;9.05;7.00;;;;;;;;;;5058905;28;20533;-56
2023/05/20 07:23:06;;;;;;;9.80;7.10;;;;;;;;;;5058555;28;20032;-59
2023/05/20 07:25:31;;;;;;;10.73;7.07;;;;;;;;;;5058690;28;20234;-58
2023/05/20 07:27:56;;;;;;;10.03;7.33;;;;;;;;;;5058870;28;20035;-58
2023/05/20 07:30:22;;;;;;;11.50;6.72;;;;;;;;;;5058591;28;20743;-58
2023/05/20 07:32:47;;;;;;;11.32;7.30;;;;;;;;;;5058857;28;20025;-57
2023/05/20 07:35:12;;;;;;;15.45;7.47;;;;;;;;;;5058086;28;20486;-60
2023/05/20 07:37:38;;;;;;;13.07;8.40;;;;;;;;;;5040537;28;20024;-56
2023/05/20 07:40:04;;;;;;;22.57;14.77;;;;;;;;;;5058190;28;20336;-61
2023/05/20 07:42:29;;;;;;;10.90;6.60;;;;;;;;;;5058557;28;20332;-58
2023/05/20 07:44:55;;;;;;;250.70;162.60;;;;;;;;;;5058289;28;20519;-59
2023/05/20 07:47:20;;;;;;;42.25;27.17;;;;;;;;;;5058166;28;20498;-56
2023/05/20 07:49:45;;;;;;;8.37;6.33;;;;;;;;;;5058075;28;20430;-59
2023/05/20 07:52:11;;;;;;;16.58;9.52;;;;;;;;;;5040326;28;20331;-59
2023/05/20 07:54:36;;;;;;;8.07;6.22;;;;;;;;;;5057743;28;20100;-60
2023/05/20 07:57:01;;;;;;;13.75;6.72;;;;;;;;;;5057727;28;20024;-58
2023/05/20 07:59:26;;;;;;;12.00;6.87;;;;;;;;;;5057979;28;20121;-58
2023/05/20 08:01:52;;;;;;;8.53;5.83;;;;;;;;;;5057690;28;20645;-61
2023/05/20 08:04:17;;;;;;;10.15;6.90;;;;;;;;;;5058144;28;20237;-60
2023/05/20 08:06:43;;;;;;;11.27;6.63;;;;;;;;;;5056575;28;20058;-58
2023/05/20 08:09:08;;;;;;;10.20;6.88;;;;;;;;;;5057774;28;20036;-58
2023/05/20 08:11:34;;;;;;;10.50;6.88;;;;;;;;;;5057663;28;20029;-61
2023/05/20 08:14:00;;;;;;;10.63;7.47;;;;;;;;;;5057766;28;20024;-57
2023/05/20 08:16:26;;;;;;;11.55;7.57;;;;;;;;;;5057914;28;20024;-59
2023/05/20 08:18:51;;;;;;;15.52;7.03;;;;;;;;;;5057416;28;20081;-57
2023/05/20 08:21:16;;;;;;;11.02;7.45;;;;;;;;;;5057926;28;20490;-60
2023/05/20 08:23:42;;;;;;;9.67;6.13;;;;;;;;;;5057498;28;20500;-59
2023/05/20 08:26:07;;;;;;;13.13;6.80;;;;;;;;;;5039669;28;20058;-58
2023/05/20 08:28:32;;;;;;;9.73;6.70;;;;;;;;;;5057513;28;20065;-59
2023/05/20 08:31:00;;;;;;;9.40;7.47;;;;;;;;;;5057844;28;20249;-57
2023/05/20 08:33:25;;;;;;;14.68;7.55;;;;;;;;;;5057343;28;20252;-58
2023/05/20 08:35:50;;;;;;;10.37;6.53;;;;;;;;;;5057590;28;20020;-58
2023/05/20 08:38:16;;;;;;;10.50;7.15;;;;;;;;;;5057154;28;20275;-59
2023/05/20 08:40:41;;;;;;;11.02;6.40;;;;;;;;;;5057730;28;20475;-56
2023/05/20 08:43:06;;;;;;;12.05;6.97;;;;;;;;;;5057626;28;20439;-57
2023/05/20 08:45:32;;;;;;;9.23;6.87;;;;;;;;;;5057521;28;20415;-60
2023/05/20 08:47:59;;;;;;;9.50;7.20;;;;;;;;;;5057976;28;20621;-59
2023/05/20 08:50:24;;;;;;;11.65;7.07;;;;;;;;;;5057222;28;20028;-57
2023/05/20 08:52:50;;;;;;;13.60;7.03;;;;;;;;;;5057677;28;20027;-59
2023/05/20 08:55:25;;;;;;;11.10;6.57;;;;;;;;;;5039019;28;20280;-60
2023/05/20 08:57:53;;;;;;;9.32;6.38;;;;;;;;;;5038638;28;20032;-59
2023/05/20 09:00:19;;;;;;;7.53;6.18;;;;;;;;;;5057517;28;20077;-57
2023/05/20 09:02:45;;;;;;;11.65;6.63;;;;;;;;;;5057221;28;20021;-58
2023/05/20 09:05:10;;;;;;;10.27;6.43;;;;;;;;;;5057107;28;20479;-60
2023/05/20 09:07:35;;;;;;;8.60;6.00;;;;;;;;;;5057189;28;20120;-59
2023/05/20 09:10:01;;;;;;;13.30;6.95;;;;;;;;;;5057189;28;20029;-60
2023/05/20 09:12:26;;;;;;;8.35;6.55;;;;;;;;;;5057374;28;20050;-57
2023/05/20 09:14:52;;;;;;;10.25;6.47;;;;;;;;;;5039394;28;20094;-60
2023/05/20 09:17:17;;;;;;;6.97;5.90;;;;;;;;;;5057630;28;20527;-59
2023/05/20 09:19:42;;;;;;;7.88;5.70;;;;;;;;;;5060460;28;20031;-59
2023/05/20 09:22:08;;;;;;;13.60;6.77;;;;;;;;;;5061082;28;20024;-60
2023/05/20 09:24:33;;;;;;;9.40;6.63;;;;;;;;;;5060775;28;20306;-58
2023/05/20 09:26:58;;;;;;;9.40;5.90;;;;;;;;;;5060966;28;20012;-60
2023/05/20 09:29:24;;;;;;;15.43;6.93;;;;;;;;;;5060657;28;20271;-58
2023/05/20 09:31:50;;;;;;;10.90;6.35;;;;;;;;;;5060937;28;20020;-58
2023/05/20 09:34:16;;;;;;;7.80;6.10;;;;;;;;;;5060582;28;20048;-58
2023/05/20 09:36:42;;;;;;;9.27;5.93;;;;;;;;;;5060749;28;20120;-61
2023/05/20 09:39:11;;;;;;;11.68;6.68;;;;;;;;;;5060814;28;20020;-57
2023/05/20 09:41:43;;;;;;;10.32;6.25;;;;;;;;;;5060368;28;20464;-58
2023/05/20 09:44:10;;;;;;;11.32;5.82;;;;;;;;;;5060633;28;20533;-60
2023/05/20 09:46:35;;;;;;;9.02;5.80;;;;;;;;;;5060827;28;20140;-60
2023/05/20 09:49:01;;;;;;;9.88;6.28;;;;;;;;;;5060460;28;20025;-56
2023/05/20 09:51:28;;;;;;;8.50;6.65;;;;;;;;;;5060478;28;20016;-59
2023/05/20 09:53:53;;;;;;;8.82;5.95;;;;;;;;;;5060316;28;20021;-59
2023/05/20 09:56:20;;;;;;;8.70;5.97;;;;;;;;;;5060129;28;20023;-57
2023/05/20 09:58:46;;;;;;;9.27;7.13;;;;;;;;;;5060072;28;20106;-57
2023/05/20 10:01:12;;;;;;;8.45;6.07;;;;;;;;;;5060139;28;20062;-59
2023/05/20 10:03:37;;;;;;;6.85;6.13;;;;;;;;;;5060208;28;20506;-61
2023/05/20 10:06:06;;;;;;;9.68;5.70;;;;;;;;;;5059968;28;20040;-57
2023/05/20 10:08:31;;;;;;;9.07;5.55;;;;;;;;;;5060203;28;20021;-56
2023/05/20 10:11:16;;;;;;;9.80;6.65;;;;;;;;;;5059804;28;20017;-58
2023/05/20 10:13:50;;;;;;;8.80;5.88;;;;;;;;;;5041664;28;20032;-58
2023/05/20 10:16:16;;;;;;;10.63;6.00;;;;;;;;;;5059855;28;20107;-54
2023/05/20 10:18:47;;;;;;;9.30;6.20;;;;;;;;;;5060203;28;20103;-59
2023/05/20 10:21:16;;;;;;;9.48;6.55;;;;;;;;;;5059630;28;20044;-57
2023/05/20 10:23:41;;;;;;;8.57;5.80;;;;;;;;;;5059614;28;20099;-61
2023/05/20 10:26:06;;;;;;;11.80;5.90;;;;;;;;;;5059866;28;20099;-58
2023/05/20 10:28:35;;;;;;;9.07;5.90;;;;;;;;;;5059665;28;20024;-58
2023/05/20 10:31:01;;;;;;;8.50;6.13;;;;;;;;;;5058944;28;20281;-59
2023/05/20 10:33:29;;;;;;;11.57;5.75;;;;;;;;;;5059548;28;20059;-56
2023/05/20 10:35:58;;;;;;;9.90;5.68;;;;;;;;;;5059825;28;20026;-56
2023/05/20 10:38:24;;;;;;;10.80;6.22;;;;;;;;;;5060119;28;20079;-56
2023/05/20 10:40:49;;;;;;;11.48;5.85;;;;;;;;;;5059871;28;20622;-60
2023/05/20 10:43:17;;;;;;;8.25;6.07;;;;;;;;;;5041546;28;20381;-59
2023/05/20 10:45:49;;;;;;;7.15;5.90;;;;;;;;;;5059000;28;20024;-61
2023/05/20 10:48:24;;;;;;;8.52;5.68;;;;;;;;;;5058812;28;20033;-56
2023/05/20 10:50:49;;;;;;;9.77;6.10;;;;;;;;;;5041184;28;20032;-59
2023/05/20 10:53:15;;;;;;;13.13;6.13;;;;;;;;;;5059173;28;20358;-59
2023/05/20 10:55:46;;;;;;;9.80;6.10;;;;;;;;;;5058565;28;20031;-53
2023/05/20 10:58:11;;;;;;;9.30;6.35;;;;;;;;;;5058914;28;20016;-59
2023/05/20 11:00:37;;;;;;;12.07;6.33;;;;;;;;;;5058897;28;20085;-56
2023/05/20 11:03:04;;;;;;;10.95;5.85;;;;;;;;;;5058729;28;20602;-56
2023/05/20 11:05:30;;;;;;;7.20;6.50;;;;;;;;;;5058509;28;20048;-58
2023/05/20 11:08:21;;;;;;;12.02;6.65;;;;;;;;;;5058973;28;20074;-58
2023/05/20 11:10:46;;;;;;;8.77;6.30;;;;;;;;;;4957067;28;20228;-56
2023/05/20 11:13:13;;;;;;;7.88;5.95;;;;;;;;;;4941071;28;20649;-59
2023/05/20 11:15:38;;;;;;;17.15;6.30;;;;;;;;;;4957101;28;20031;-58
2023/05/20 11:18:03;;;;;;;8.23;6.83;;;;;;;;;;4957268;28;20030;-57
2023/05/20 11:20:29;;;;;;;11.60;6.50;;;;;;;;;;4957361;28;20245;-58
2023/05/20 11:22:55;;;;;;;8.07;5.72;;;;;;;;;;4957123;28;20292;-56
2023/05/20 11:25:22;;;;;;;10.00;6.18;;;;;;;;;;4957187;28;20077;-58
2023/05/20 11:27:48;;;;;;;8.60;6.18;;;;;;;;;;4956852;28;20178;-59
2023/05/20 11:30:17;;;;;;;15.48;6.28;;;;;;;;;;4957076;28;20031;-59
2023/05/20 11:32:58;;;;;;;10.35;6.15;;;;;;;;;;4957090;28;20027;-59
2023/05/20 11:35:24;;;;;;;8.73;5.95;;;;;;;;;;4956898;28;20038;-57
2023/05/20 11:38:15;;;;;;;8.43;5.88;;;;;;;;;;4956514;28;20439;-58
2023/05/20 11:40:45;;;;;;;7.90;6.15;;;;;;;;;;4918107;29;20050;-57
2023/05/20 11:43:11;;;;;;;11.02;6.10;;;;;;;;;;4918164;29;20372;-58
2023/05/20 11:45:43;;;;;;;10.65;6.07;;;;;;;;;;4918544;29;20421;-58
2023/05/20 11:48:09;;;;;;;11.10;6.38;;;;;;;;;;4959223;28;20030;-60
2023/05/20 11:50:35;;;;;;;9.23;6.20;;;;;;;;;;4975906;28;20027;-60
2023/05/20 11:53:04;;;;;;;9.40;6.32;;;;;;;;;;4976189;28;20035;-59
2023/05/20 11:55:31;;;;;;;8.40;6.47;;;;;;;;;;4975325;28;20310;-58
2023/05/20 11:57:57;;;;;;;7.78;6.38;;;;;;;;;;4975767;28;20038;-56
2023/05/20 12:00:22;;;;;;;7.68;6.07;;;;;;;;;;4975846;28;20026;-59
2023/05/20 12:02:48;;;;;;;9.02;6.60;;;;;;;;;;4976038;28;20033;-58
2023/05/20 12:05:13;;;;;;;16.65;7.85;;;;;;;;;;4942847;28;20489;-57
2023/05/20 12:07:39;;;;;;;9.93;6.47;;;;;;;;;;4975651;28;20031;-58
2023/05/20 12:10:04;;;;;;;10.98;6.65;;;;;;;;;;4976004;28;20121;-59
2023/05/20 12:12:30;;;;;;;11.60;6.95;;;;;;;;;;4975881;28;20085;-59
2023/05/20 12:14:55;;;;;;;10.65;6.47;;;;;;;;;;4975902;28;20026;-58
2023/05/20 12:17:21;;;;;;;10.55;6.65;;;;;;;;;;5010427;28;20036;-57
2023/05/20 12:19:46;;;;;;;13.40;6.90;;;;;;;;;;5039689;28;20025;-59
2023/05/20 12:22:11;;;;;;;8.40;6.43;;;;;;;;;;5057858;28;20013;-56
2023/05/20 12:24:36;;;;;;;10.90;6.27;;;;;;;;;;5057988;28;20244;-59
2023/05/20 12:27:05;;;;;;;10.33;6.17;;;;;;;;;;5057766;28;20416;-57
2023/05/20 12:29:30;;;;;;;13.15;6.45;;;;;;;;;;5057555;28;20113;-61
2023/05/20 12:31:56;;;;;;;10.18;6.75;;;;;;;;;;5058038;28;20555;-59
2023/05/20 12:34:21;;;;;;;9.17;6.87;;;;;;;;;;5039596;28;20456;-59
2023/05/20 12:36:47;;;;;;;10.13;7.47;;;;;;;;;;5058111;28;20632;-60
2023/05/20 12:39:13;;;;;;;13.20;6.70;;;;;;;;;;5039518;28;20262;-58
2023/05/20 12:41:39;;;;;;;11.95;6.70;;;;;;;;;;5057474;28;20100;-58
2023/05/20 12:44:04;;;;;;;12.52;6.18;;;;;;;;;;5057574;28;20099;-59
2023/05/20 12:46:29;;;;;;;13.38;7.13;;;;;;;;;;5057770;28;20492;-60
2023/05/20 12:48:55;;;;;;;12.68;6.78;;;;;;;;;;5057166;28;20312;-55
2023/05/20 12:51:20;;;;;;;10.20;6.78;;;;;;;;;;5057546;28;20032;-60
2023/05/20 12:53:45;;;;;;;9.33;6.53;;;;;;;;;;5059565;28;20103;-59
2023/05/20 12:56:11;;;;;;;13.07;7.50;;;;;;;;;;5042891;28;20261;-58
2023/05/20 12:58:36;;;;;;;11.88;6.70;;;;;;;;;;5061444;28;20258;-60
2023/05/20 13:01:01;;;;;;;10.67;7.20;;;;;;;;;;5061002;28;20426;-58
2023/05/20 13:03:26;;;;;;;10.00;7.17;;;;;;;;;;5061390;28;20358;-60
2023/05/20 13:05:52;;;;;;;15.53;6.60;;;;;;;;;;5061071;28;20131;-59
2023/05/20 13:08:17;;;;;;;10.80;6.90;;;;;;;;;;5061378;28;20365;-59
2023/05/20 13:10:42;;;;;;;8.63;6.70;;;;;;;;;;5061460;28;20100;-58
2023/05/20 13:13:08;;;;;;;14.27;7.17;;;;;;;;;;5061110;28;20103;-56
2023/05/20 13:15:33;;;;;;;12.77;7.40;;;;;;;;;;5060892;28;20013;-58
2023/05/20 13:18:00;;;;;;;8.20;6.38;;;;;;;;;;5061367;28;20532;-59
2023/05/20 13:20:25;;;;;;;11.30;7.25;;;;;;;;;;5061084;28;20058;-57
2023/05/20 13:22:50;;;;;;;11.07;6.47;;;;;;;;;;5060598;28;20028;-59
2023/05/20 13:25:16;;;;;;;11.60;7.67;;;;;;;;;;5060979;28;20475;-57
2023/05/20 13:27:41;;;;;;;8.25;6.75;;;;;;;;;;5060250;28;20292;-60
2023/05/20 13:30:07;;;;;;;13.80;7.35;;;;;;;;;;5060859;28;20043;-58
2023/05/20 13:32:32;;;;;;;10.38;8.02;;;;;;;;;;5060750;28;20059;-60
2023/05/20 13:34:58;;;;;;;11.27;7.15;;;;;;;;;;5060825;28;20096;-58
2023/05/20 13:37:24;;;;;;;12.10;6.90;;;;;;;;;;5060699;28;20473;-58
2023/05/20 13:39:50;;;;;;;11.27;7.10;;;;;;;;;;5042984;28;20021;-60
2023/05/20 13:42:15;;;;;;;12.80;7.80;;;;;;;;;;5060398;28;20020;-59
2023/05/20 13:44:40;;;;;;;12.52;7.03;;;;;;;;;;5060423;28;20024;-58
2023/05/20 13:47:05;;;;;;;12.57;7.38;;;;;;;;;;5060673;28;20055;-60
2023/05/20 13:49:31;;;;;;;13.07;7.43;;;;;;;;;;5060009;28;20021;-58
2023/05/20 13:51:56;;;;;;;14.87;7.13;;;;;;;;;;5060607;28;20463;-60
2023/05/20 13:54:21;;;;;;;10.10;6.50;;;;;;;;;;5060320;28;20013;-59
2023/05/20 13:56:47;;;;;;;12.67;7.73;;;;;;;;;;5060187;28;20308;-58
2023/05/20 13:59:12;;;;;;;10.82;6.88;;;;;;;;;;5060324;28;20024;-57
2023/05/20 14:01:38;;;;;;;11.02;7.40;;;;;;;;;;5060186;28;20561;-59
2023/05/20 14:04:03;;;;;;;8.48;6.75;;;;;;;;;;5060350;28;20448;-61
2023/05/20 14:06:30;;;;;;;9.95;7.15;;;;;;;;;;5060335;28;20348;-58
2023/05/20 14:08:56;;;;;;;11.40;6.47;;;;;;;;;;5059975;28;20029;-55
2023/05/20 14:11:21;;;;;;;12.50;7.32;;;;;;;;;;5059919;28;20162;-59
2023/05/20 14:13:46;;;;;;;10.25;6.93;;;;;;;;;;5060148;28;20556;-58
2023/05/20 14:16:12;;;;;;;12.47;6.93;;;;;;;;;;5059870;28;20103;-58
2023/05/20 14:18:37;;;;;;;12.53;7.20;;;;;;;;;;5060075;28;20618;-59
2023/05/20 14:21:02;;;;;;;11.33;7.63;;;;;;;;;;5059770;28;20238;-60